Time;durP1;ratioP1;P1;durP2;ratioP2;P2;SDS_P1;SDS_P2;PMS_P1;PMS_P2;Temp;Humidity;BMP_temperature;BMP_pressure;BME280_temperature;BME280_humidity;BME280_pressure;Samples;Min_cycle;Max_cycle;Signal;HPM_P1;HPM_P2
2024/02/29 00:00:11;;;;;;;30.95;15.93;;;3.20;99.90;;;;;;5096743;28;20115;-92
2024/02/29 00:02:37;;;;;;;32.90;15.48;;;3.30;99.90;;;;;;5098032;28;20402;-91
2024/02/29 00:05:04;;;;;;;27.80;14.73;;;3.20;99.90;;;;;;5084096;28;20020;-90
2024/02/29 00:07:29;;;;;;;32.15;16.02;;;3.10;99.90;;;;;;5099116;28;20104;-91
2024/02/29 00:09:55;;;;;;;37.67;16.63;;;2.90;99.90;;;;;;5080390;28;20048;-90
2024/02/29 00:12:20;;;;;;;33.38;15.52;;;2.80;99.90;;;;;;5097549;28;20020;-91
2024/02/29 00:14:46;;;;;;;30.33;14.48;;;2.80;99.90;;;;;;5099247;28;20035;-89
2024/02/29 00:17:12;;;;;;;28.42;14.55;;;2.90;99.90;;;;;;5080802;28;20068;-91
2024/02/29 00:19:37;;;;;;;30.08;15.88;;;2.90;99.90;;;;;;5099714;28;20034;-91
2024/02/29 00:22:03;;;;;;;37.08;17.42;;;2.70;99.90;;;;;;5096789;28;20032;-91
2024/02/29 00:24:29;;;;;;;37.85;17.15;;;2.50;99.90;;;;;;5100786;28;20077;-91
2024/02/29 00:26:54;;;;;;;29.35;16.48;;;2.40;99.90;;;;;;5104629;28;20505;-91
2024/02/29 00:29:25;;;;;;;36.42;17.02;;;2.40;99.90;;;;;;5094503;28;20029;-92
2024/02/29 00:31:51;;;;;;;31.80;14.90;;;2.40;99.90;;;;;;5077415;28;20024;-91
2024/02/29 00:34:16;;;;;;;36.17;16.02;;;2.30;99.90;;;;;;5098945;28;20111;-91
2024/02/29 00:36:42;;;;;;;34.85;16.92;;;2.30;99.90;;;;;;5099926;28;20028;-90
2024/02/29 00:39:08;;;;;;;33.83;16.73;;;2.30;99.90;;;;;;5098950;28;20028;-91
2024/02/29 00:41:34;;;;;;;36.00;16.83;;;2.30;99.90;;;;;;5097736;28;20023;-91
2024/02/29 00:44:00;;;;;;;41.45;16.75;;;2.40;99.90;;;;;;5079525;28;20487;-89
2024/02/29 00:46:26;;;;;;;31.25;15.65;;;2.40;99.90;;;;;;5079216;28;20020;-91
2024/02/29 00:48:52;;;;;;;33.80;16.98;;;2.40;99.90;;;;;;5097401;28;20382;-91
2024/02/29 00:51:18;;;;;;;34.70;16.67;;;2.40;99.90;;;;;;5096363;28;20023;-91
2024/02/29 00:53:44;;;;;;;36.35;16.90;;;2.40;99.90;;;;;;5078715;28;20554;-91
2024/02/29 00:56:10;;;;;;;38.38;16.08;;;2.30;99.90;;;;;;5096792;28;20066;-91
2024/02/29 00:58:35;;;;;;;36.13;17.25;;;2.30;99.90;;;;;;5097932;28;20020;-91
2024/02/29 01:01:02;;;;;;;31.15;16.50;;;2.30;99.90;;;;;;5094781;28;20055;-90
2024/02/29 01:03:28;;;;;;;35.35;15.05;;;2.30;99.90;;;;;;5096608;28;20032;-91
2024/02/29 01:05:54;;;;;;;34.30;16.27;;;2.40;99.90;;;;;;5097817;28;20024;-91
2024/02/29 01:08:19;;;;;;;26.98;14.50;;;2.40;99.90;;;;;;5098705;28;20390;-90
2024/02/29 01:10:46;;;;;;;28.45;14.80;;;2.40;99.90;;;;;;5077742;28;20024;-90
2024/02/29 01:13:11;;;;;;;34.45;16.00;;;2.40;99.90;;;;;;5096586;28;20474;-90
2024/02/29 01:15:37;;;;;;;33.22;16.13;;;2.50;99.90;;;;;;5096486;28;20040;-91
2024/02/29 01:18:05;;;;;;;39.95;17.02;;;2.40;99.90;;;;;;5096046;28;20538;-91
2024/02/29 01:20:34;;;;;;;31.45;15.07;;;2.40;99.90;;;;;;5097183;28;20032;-91
2024/02/29 01:23:00;;;;;;;32.65;15.68;;;2.50;99.90;;;;;;5079041;28;20070;-91
2024/02/29 01:25:25;;;;;;;29.42;14.32;;;2.50;99.90;;;;;;5097520;28;20020;-90
2024/02/29 01:27:51;;;;;;;33.47;19.48;;;2.50;99.90;;;;;;5100184;28;20161;-90
2024/02/29 01:30:17;;;;;;;33.00;15.95;;;2.50;99.90;;;;;;5100993;28;20032;-93
2024/02/29 01:32:43;;;;;;;28.67;14.65;;;2.40;99.90;;;;;;5100386;28;20043;-90
2024/02/29 01:35:09;;;;;;;30.55;15.10;;;2.30;99.90;;;;;;5082432;28;20039;-91
2024/02/29 01:37:35;;;;;;;29.00;15.23;;;2.30;99.90;;;;;;5101173;28;20106;-90
2024/02/29 01:40:00;;;;;;;28.45;13.32;;;2.30;99.90;;;;;;5100003;28;20028;-91
2024/02/29 01:42:26;;;;;;;35.35;15.13;;;2.20;99.90;;;;;;5100749;28;20024;-91
2024/02/29 01:44:56;;;;;;;31.75;14.57;;;2.00;99.90;;;;;;5101004;28;20020;-91
2024/02/29 01:47:23;;;;;;;33.13;15.77;;;2.00;99.90;;;;;;5100787;28;20020;-91
2024/02/29 01:49:49;;;;;;;29.95;14.77;;;2.00;99.90;;;;;;5100186;28;20024;-90
2024/02/29 01:52:16;;;;;;;36.22;16.35;;;1.80;99.90;;;;;;5091391;28;20020;-90
2024/02/29 01:54:42;;;;;;;33.97;15.77;;;1.80;99.90;;;;;;5100359;28;20103;-92
2024/02/29 01:57:09;;;;;;;32.20;15.07;;;1.80;99.90;;;;;;5100209;28;20028;-91
2024/02/29 01:59:39;;;;;;;33.33;16.70;;;1.80;99.90;;;;;;5100476;28;20024;-91
2024/02/29 02:02:05;;;;;;;29.58;14.48;;;1.90;99.90;;;;;;5081835;28;20024;-91
2024/02/29 02:04:31;;;;;;;33.25;13.73;;;1.90;99.90;;;;;;5099861;28;20013;-90
2024/02/29 02:06:58;;;;;;;30.95;14.82;;;2.00;99.90;;;;;;5099151;28;20062;-93
2024/02/29 02:09:25;;;;;;;31.95;16.27;;;1.90;99.90;;;;;;5099357;28;20478;-91
2024/02/29 02:11:50;;;;;;;34.17;15.63;;;1.80;99.90;;;;;;5082595;28;20035;-92
2024/02/29 02:14:16;;;;;;;30.67;16.30;;;1.80;99.90;;;;;;5101412;28;20020;-92
2024/02/29 02:16:42;;;;;;;30.52;14.48;;;1.80;99.90;;;;;;5081551;28;20031;-90
2024/02/29 02:19:12;;;;;;;26.77;14.05;;;1.80;99.90;;;;;;5099095;28;20059;-89
2024/02/29 02:21:39;;;;;;;34.15;15.77;;;1.70;99.90;;;;;;5098722;28;20035;-91
2024/02/29 02:24:05;;;;;;;29.38;15.23;;;1.60;99.90;;;;;;5100412;28;20027;-90
2024/02/29 02:26:30;;;;;;;33.58;15.25;;;1.60;99.90;;;;;;5099767;28;20020;-90
2024/02/29 02:28:56;;;;;;;28.55;14.57;;;1.60;99.90;;;;;;5083185;28;20027;-91
2024/02/29 02:31:22;;;;;;;29.10;11.88;;;1.50;99.90;;;;;;5102472;28;20024;-90
2024/02/29 02:33:47;;;;;;;33.28;15.48;;;1.50;99.90;;;;;;5101331;28;20501;-91
2024/02/29 02:36:13;;;;;;;26.45;13.05;;;1.50;99.90;;;;;;5101482;28;20027;-90
2024/02/29 02:38:38;;;;;;;29.67;14.70;;;1.50;99.90;;;;;;5098668;28;20031;-90
2024/02/29 02:41:04;;;;;;;29.13;14.40;;;1.50;99.90;;;;;;5099230;28;20028;-92
2024/02/29 02:43:29;;;;;;;32.35;14.70;;;1.40;99.90;;;;;;5098032;28;20028;-90
2024/02/29 02:45:55;;;;;;;32.05;15.63;;;1.40;99.90;;;;;;5099288;28;20370;-91
2024/02/29 02:48:21;;;;;;;31.00;13.93;;;1.40;99.90;;;;;;5081432;28;20028;-91
2024/02/29 02:50:46;;;;;;;27.98;14.40;;;1.40;99.90;;;;;;5099084;28;20474;-90
2024/02/29 02:53:12;;;;;;;27.48;13.32;;;1.30;99.90;;;;;;5080756;28;20122;-91
2024/02/29 02:55:38;;;;;;;32.58;15.68;;;1.30;99.90;;;;;;5097779;28;20027;-92
2024/02/29 02:58:04;;;;;;;30.10;14.40;;;1.30;99.90;;;;;;5099362;28;20536;-91
2024/02/29 03:00:29;;;;;;;26.60;14.80;;;1.30;99.90;;;;;;5098002;28;20028;-91
2024/02/29 03:02:55;;;;;;;31.90;15.73;;;1.30;99.90;;;;;;5079893;28;20038;-91
2024/02/29 03:05:22;;;;;;;27.45;12.85;;;1.30;99.90;;;;;;5098405;28;20023;-90
2024/02/29 03:07:47;;;;;;;27.00;14.10;;;1.30;99.90;;;;;;5098059;28;20069;-90
2024/02/29 03:10:13;;;;;;;31.92;14.93;;;1.20;99.90;;;;;;5098014;28;20099;-91
2024/02/29 03:12:39;;;;;;;34.00;14.82;;;1.20;99.90;;;;;;5079847;28;20091;-91
2024/02/29 03:15:05;;;;;;;30.50;13.77;;;1.10;99.90;;;;;;5097680;28;20028;-92
2024/02/29 03:17:31;;;;;;;31.65;15.45;;;1.20;99.90;;;;;;5098500;28;20039;-91
2024/02/29 03:19:57;;;;;;;28.77;15.00;;;1.20;99.90;;;;;;5097987;28;20379;-92
2024/02/29 03:22:22;;;;;;;28.95;14.90;;;1.20;99.90;;;;;;5098531;28;20077;-90
2024/02/29 03:24:48;;;;;;;31.92;15.70;;;1.10;99.90;;;;;;5098752;28;20032;-91
2024/02/29 03:27:14;;;;;;;26.48;13.10;;;1.00;99.90;;;;;;5097807;28;20028;-89
2024/02/29 03:29:39;;;;;;;30.73;14.25;;;0.90;99.90;;;;;;5099466;28;20027;-89
2024/02/29 03:32:05;;;;;;;32.58;13.73;;;0.90;99.90;;;;;;5098773;28;20068;-90
2024/02/29 03:34:31;;;;;;;30.92;15.38;;;0.90;99.90;;;;;;5079948;28;20113;-91
2024/02/29 03:36:56;;;;;;;26.00;13.70;;;1.00;99.90;;;;;;5097339;28;20024;-91
2024/02/29 03:39:22;;;;;;;34.20;14.43;;;1.00;99.90;;;;;;5098615;28;20039;-91
2024/02/29 03:41:47;;;;;;;34.35;15.48;;;0.90;99.90;;;;;;5097665;28;20111;-90
2024/02/29 03:44:13;;;;;;;36.85;16.15;;;0.90;99.90;;;;;;5099966;28;20024;-92
2024/02/29 03:46:39;;;;;;;40.65;16.67;;;0.90;99.90;;;;;;5100076;28;20020;-92
2024/02/29 03:49:06;;;;;;;40.03;15.60;;;0.90;99.90;;;;;;5081753;28;20552;-91
2024/02/29 03:51:31;;;;;;;39.28;16.00;;;0.90;99.90;;;;;;5083605;28;20028;-89
2024/02/29 03:53:57;;;;;;;40.60;16.75;;;1.00;99.90;;;;;;5100003;28;20019;-90
2024/02/29 03:56:23;;;;;;;60.53;19.92;;;1.10;99.90;;;;;;5080748;28;20024;-90
2024/02/29 03:58:49;;;;;;;42.95;17.55;;;1.20;99.90;;;;;;5098446;28;20512;-91
2024/02/29 04:01:15;;;;;;;57.45;21.58;;;1.20;99.90;;;;;;5089435;28;20020;-90
2024/02/29 04:03:42;;;;;;;39.55;19.88;;;1.20;99.90;;;;;;5098609;28;20080;-90
2024/02/29 04:06:08;;;;;;;48.45;19.20;;;1.20;99.90;;;;;;5098184;28;20440;-89
2024/02/29 04:08:35;;;;;;;54.08;18.00;;;1.10;99.90;;;;;;5098215;28;20024;-90
2024/02/29 04:11:00;;;;;;;49.72;18.63;;;0.90;99.90;;;;;;5098693;28;20024;-91
2024/02/29 04:13:26;;;;;;;56.30;18.48;;;0.90;99.90;;;;;;5100200;28;20215;-91
2024/02/29 04:15:52;;;;;;;53.78;17.77;;;0.80;99.90;;;;;;5096785;28;20032;-90
2024/02/29 04:18:17;;;;;;;46.95;18.50;;;0.90;99.90;;;;;;5097322;28;20031;-90
2024/02/29 04:20:44;;;;;;;44.40;15.95;;;0.80;99.90;;;;;;5097241;28;20036;-90
2024/02/29 04:23:10;;;;;;;54.00;18.58;;;1.00;99.90;;;;;;5077429;28;20493;-89
2024/02/29 04:25:35;;;;;;;38.88;16.75;;;0.90;99.90;;;;;;5096191;28;20093;-91
2024/02/29 04:28:02;;;;;;;45.25;19.88;;;1.00;99.90;;;;;;5097050;28;20110;-88
2024/02/29 04:30:28;;;;;;;48.08;17.73;;;0.80;99.90;;;;;;5097608;28;20035;-91
2024/02/29 04:32:54;;;;;;;66.70;21.38;;;0.70;99.90;;;;;;5096610;28;20039;-90
2024/02/29 04:35:20;;;;;;;55.80;21.23;;;0.80;99.90;;;;;;5078969;28;20023;-90
2024/02/29 04:37:46;;;;;;;53.67;19.88;;;0.80;99.90;;;;;;5078409;28;20028;-90
2024/02/29 04:40:11;;;;;;;49.25;19.33;;;0.90;99.90;;;;;;5098430;28;20024;-91
2024/02/29 04:42:38;;;;;;;38.50;17.42;;;0.90;99.90;;;;;;5097992;28;20020;-89
2024/02/29 04:45:04;;;;;;;47.72;19.80;;;0.90;99.90;;;;;;5097931;28;20040;-92
2024/02/29 04:47:30;;;;;;;50.13;19.20;;;0.80;99.90;;;;;;5116698;28;20013;-93
2024/02/29 04:49:55;;;;;;;53.17;19.33;;;0.80;99.90;;;;;;5108741;28;20032;-90
2024/02/29 04:52:22;;;;;;;50.45;20.27;;;0.90;99.90;;;;;;5114561;28;20064;-91
2024/02/29 04:54:48;;;;;;;41.03;17.63;;;0.90;99.90;;;;;;5101230;28;20028;-92
2024/02/29 04:57:13;;;;;;;60.25;20.27;;;0.70;99.90;;;;;;5096504;28;20031;-91
2024/02/29 04:59:39;;;;;;;41.47;18.67;;;0.70;99.90;;;;;;5096931;28;20020;-90
2024/02/29 05:02:05;;;;;;;47.00;20.98;;;0.60;99.90;;;;;;5100776;28;20116;-90
2024/02/29 05:04:31;;;;;;;40.13;18.77;;;0.60;99.90;;;;;;5101172;28;20046;-91
2024/02/29 05:06:56;;;;;;;40.42;18.60;;;0.60;99.90;;;;;;5100165;28;20035;-89
2024/02/29 05:09:23;;;;;;;40.20;17.98;;;0.70;99.90;;;;;;5101629;28;20024;-91
2024/02/29 05:11:49;;;;;;;46.05;17.85;;;0.70;99.90;;;;;;5100656;28;20104;-91
2024/02/29 05:14:15;;;;;;;52.38;19.63;;;0.70;99.90;;;;;;5093954;28;20060;-90
2024/02/29 05:16:40;;;;;;;44.17;18.48;;;0.70;99.90;;;;;;5101179;28;20030;-92
2024/02/29 05:19:06;;;;;;;45.92;20.80;;;0.80;99.90;;;;;;5099846;28;20385;-89
2024/02/29 05:21:31;;;;;;;41.22;19.90;;;0.80;99.90;;;;;;5081940;28;20089;-90
2024/02/29 05:23:57;;;;;;;55.70;22.15;;;0.80;99.90;;;;;;5100362;28;20021;-92
2024/02/29 05:26:22;;;;;;;71.45;22.40;;;0.80;99.90;;;;;;5100698;28;20028;-90
2024/02/29 05:28:48;;;;;;;43.80;19.73;;;0.80;99.90;;;;;;5100559;28;20020;-91
2024/02/29 05:31:14;;;;;;;47.88;20.77;;;0.80;99.90;;;;;;5080390;28;20020;-88
2024/02/29 05:33:42;;;;;;;52.10;20.88;;;0.80;99.90;;;;;;5099336;28;20497;-91
2024/02/29 05:36:08;;;;;;;42.80;19.25;;;0.60;99.90;;;;;;5082193;28;20024;-91
2024/02/29 05:38:34;;;;;;;59.92;21.00;;;0.60;99.90;;;;;;5081079;28;20028;-91
2024/02/29 05:41:03;;;;;;;64.15;23.48;;;0.60;99.90;;;;;;5098943;28;20055;-91
2024/02/29 05:43:29;;;;;;;60.90;22.98;;;0.70;99.90;;;;;;5100116;28;20024;-91
2024/02/29 05:45:55;;;;;;;52.58;21.63;;;0.80;99.90;;;;;;5099306;28;20020;-91
2024/02/29 05:48:20;;;;;;;51.03;19.65;;;0.70;99.90;;;;;;5099346;28;20024;-90
2024/02/29 05:50:46;;;;;;;53.40;20.70;;;0.70;99.90;;;;;;5099606;28;20042;-92
2024/02/29 05:53:11;;;;;;;46.90;23.42;;;0.80;99.90;;;;;;5100330;28;20490;-92
2024/02/29 05:55:37;;;;;;;53.42;23.83;;;0.70;99.90;;;;;;5093557;28;20128;-90
2024/02/29 05:58:03;;;;;;;48.28;20.30;;;0.70;99.90;;;;;;5098556;28;20056;-91
2024/02/29 06:00:29;;;;;;;51.33;22.10;;;0.80;99.90;;;;;;5100225;28;20475;-90
2024/02/29 06:02:56;;;;;;;49.92;20.92;;;0.80;99.90;;;;;;5101450;28;20027;-91
2024/02/29 06:05:22;;;;;;;59.45;23.33;;;0.90;99.90;;;;;;5104976;28;20026;-90
2024/02/29 06:07:48;;;;;;;52.03;20.60;;;0.80;99.90;;;;;;5103315;28;20020;-90
2024/02/29 06:10:13;;;;;;;50.25;20.73;;;0.90;99.90;;;;;;5080902;28;20020;-91
2024/02/29 06:12:39;;;;;;;47.92;20.85;;;0.90;99.90;;;;;;5099045;28;20478;-92
2024/02/29 06:15:06;;;;;;;48.50;20.65;;;0.90;99.90;;;;;;5101442;28;20032;-91
2024/02/29 06:17:32;;;;;;;53.08;20.92;;;1.00;99.90;;;;;;5100401;28;20035;-91
2024/02/29 06:19:57;;;;;;;46.55;18.88;;;0.90;99.90;;;;;;5100682;28;20040;-93
2024/02/29 06:22:23;;;;;;;44.58;18.80;;;0.80;99.90;;;;;;5099634;28;20482;-91
2024/02/29 06:24:49;;;;;;;82.30;22.05;;;0.80;99.90;;;;;;5098730;28;20387;-90
2024/02/29 06:27:17;;;;;;;65.32;21.52;;;0.90;99.90;;;;;;5101844;28;20012;-90
2024/02/29 06:29:43;;;;;;;62.38;20.27;;;0.90;99.90;;;;;;5099494;28;20064;-89
2024/02/29 06:32:08;;;;;;;48.47;19.63;;;1.00;99.90;;;;;;5082314;28;20035;-89
2024/02/29 06:34:37;;;;;;;53.58;21.38;;;1.00;99.90;;;;;;5099981;28;20103;-91
2024/02/29 06:37:03;;;;;;;47.95;20.60;;;1.20;99.90;;;;;;5099721;28;20027;-90
2024/02/29 06:39:28;;;;;;;61.20;21.77;;;1.10;99.90;;;;;;5099647;28;20138;-90
2024/02/29 06:41:54;;;;;;;49.80;20.17;;;1.00;99.90;;;;;;5098781;28;20109;-90
2024/02/29 06:44:20;;;;;;;63.65;25.33;;;1.00;99.90;;;;;;5100388;28;20046;-90
2024/02/29 06:46:45;;;;;;;56.58;21.50;;;1.00;99.90;;;;;;5100469;28;20116;-90
2024/02/29 06:49:11;;;;;;;58.78;21.98;;;0.90;99.90;;;;;;5083388;28;20087;-90
2024/02/29 06:51:36;;;;;;;54.55;19.77;;;0.90;99.90;;;;;;5099786;28;20032;-90
2024/02/29 06:54:02;;;;;;;49.35;21.38;;;1.00;99.90;;;;;;5101319;28;20021;-91
2024/02/29 06:56:28;;;;;;;55.53;21.13;;;0.90;99.90;;;;;;5083240;28;20024;-88
2024/02/29 06:58:54;;;;;;;53.33;21.17;;;0.90;99.90;;;;;;5102177;28;20024;-89
2024/02/29 07:01:19;;;;;;;61.30;22.13;;;1.00;99.90;;;;;;5083930;28;20059;-91
2024/02/29 07:03:47;;;;;;;58.70;20.75;;;1.00;99.90;;;;;;5094274;28;20035;-91
2024/02/29 07:06:13;;;;;;;47.22;18.23;;;0.90;99.90;;;;;;5099358;28;20084;-91
2024/02/29 07:08:38;;;;;;;45.08;20.27;;;1.00;99.90;;;;;;5081907;28;20020;-89
2024/02/29 07:11:04;;;;;;;51.92;19.25;;;1.00;99.90;;;;;;5082244;28;20038;-89
2024/02/29 07:13:30;;;;;;;48.38;20.75;;;1.00;99.90;;;;;;5102687;28;20024;-92
2024/02/29 07:15:56;;;;;;;48.53;19.77;;;0.90;99.90;;;;;;5103382;28;20050;-92
2024/02/29 07:18:23;;;;;;;72.60;18.35;;;0.90;99.90;;;;;;5082101;28;20553;-90
2024/02/29 07:20:49;;;;;;;47.65;18.80;;;0.90;99.90;;;;;;5099840;28;20039;-90
2024/02/29 07:23:15;;;;;;;47.33;19.02;;;0.90;99.90;;;;;;5106149;28;20062;-90
2024/02/29 07:25:41;;;;;;;41.72;16.30;;;1.00;99.90;;;;;;5115878;28;20009;-92
2024/02/29 07:28:10;;;;;;;50.63;28.05;;;0.90;99.90;;;;;;5118730;28;20043;-93
2024/02/29 07:30:36;;;;;;;39.50;17.50;;;0.90;99.90;;;;;;5101639;28;20036;-93
2024/02/29 07:33:02;;;;;;;50.35;19.15;;;0.80;99.90;;;;;;5118232;28;20036;-91
2024/02/29 07:35:28;;;;;;;45.15;19.08;;;0.90;99.90;;;;;;5118248;28;20053;-93
2024/02/29 07:37:53;;;;;;;48.08;19.30;;;0.90;99.90;;;;;;5100931;28;20027;-93
2024/02/29 07:40:19;;;;;;;39.88;17.15;;;0.90;99.90;;;;;;5097314;28;20020;-90
2024/02/29 07:42:45;;;;;;;42.63;20.15;;;1.00;99.90;;;;;;5080313;28;20640;-91
2024/02/29 07:45:11;;;;;;;50.20;17.75;;;0.90;99.90;;;;;;5097172;28;20016;-91
2024/02/29 07:47:38;;;;;;;47.75;19.92;;;1.00;99.90;;;;;;5097422;28;20024;-92
2024/02/29 07:50:05;;;;;;;36.88;18.13;;;1.10;99.90;;;;;;5097915;28;20057;-90
2024/02/29 07:52:35;;;;;;;52.38;21.35;;;1.10;99.90;;;;;;5097182;28;20024;-90
2024/02/29 07:55:01;;;;;;;46.72;21.20;;;1.10;99.90;;;;;;5078749;28;20032;-90
2024/02/29 07:57:26;;;;;;;50.65;19.08;;;1.00;99.90;;;;;;5098907;28;20111;-91
2024/02/29 07:59:52;;;;;;;46.95;20.00;;;1.20;99.90;;;;;;5107513;28;20023;-92
2024/02/29 08:02:18;;;;;;;56.17;18.85;;;1.20;99.90;;;;;;5114220;28;20036;-92
2024/02/29 08:04:44;;;;;;;49.75;19.25;;;1.30;99.90;;;;;;5111453;28;20075;-92
2024/02/29 08:07:12;;;;;;;57.15;19.02;;;1.20;99.90;;;;;;5095659;28;20118;-90
2024/02/29 08:09:38;;;;;;;;;;;1.20;99.90;;;;;;5103783;28;20024;-90
2024/02/29 08:12:03;;;;;;;50.88;17.77;;;1.30;99.90;;;;;;5091813;28;20373;-90
2024/02/29 08:14:30;;;;;;;49.67;18.17;;;1.50;99.90;;;;;;5108918;28;20024;-90
2024/02/29 08:16:55;;;;;;;42.42;17.70;;;1.60;99.90;;;;;;5092938;28;20024;-91
2024/02/29 08:19:23;;;;;;;55.08;21.70;;;1.70;99.90;;;;;;5086126;28;20130;-90
2024/02/29 08:21:49;;;;;;;54.30;19.25;;;1.80;99.90;;;;;;5099929;28;20027;-91
2024/02/29 08:24:15;;;;;;;46.38;18.92;;;1.90;99.90;;;;;;5092879;28;20020;-91
2024/02/29 08:26:41;;;;;;;39.85;16.92;;;2.00;99.90;;;;;;5103656;28;20102;-89
2024/02/29 08:29:06;;;;;;;41.45;16.95;;;2.10;99.90;;;;;;5084215;28;20468;-91
2024/02/29 08:31:33;;;;;;;41.67;17.73;;;2.00;99.90;;;;;;5103266;28;20080;-90
2024/02/29 08:33:59;;;;;;;41.95;17.95;;;2.00;99.90;;;;;;5101588;28;20020;-90
2024/02/29 08:36:28;;;;;;;55.85;21.90;;;2.10;99.90;;;;;;5102270;28;20024;-91
2024/02/29 08:38:54;;;;;;;51.08;21.83;;;2.20;99.90;;;;;;5102404;28;20024;-92
2024/02/29 08:41:19;;;;;;;50.13;19.42;;;2.30;99.90;;;;;;5085080;28;20559;-92
2024/02/29 08:43:45;;;;;;;36.85;18.27;;;2.20;99.90;;;;;;5102380;28;20024;-91
2024/02/29 08:46:11;;;;;;;37.95;17.38;;;2.40;99.90;;;;;;5103612;28;20020;-90
2024/02/29 08:48:36;;;;;;;38.65;17.52;;;2.50;99.90;;;;;;5099040;28;20107;-89
2024/02/29 08:51:02;;;;;;;42.70;18.40;;;2.60;99.90;;;;;;5103331;28;20024;-90
2024/02/29 08:53:28;;;;;;;42.42;17.55;;;2.70;99.90;;;;;;5103794;28;20092;-91
2024/02/29 08:55:54;;;;;;;44.15;19.83;;;2.80;99.90;;;;;;5095608;28;20021;-90
2024/02/29 08:58:20;;;;;;;42.88;20.00;;;2.90;99.90;;;;;;5102876;28;20110;-91
2024/02/29 09:00:45;;;;;;;45.45;18.00;;;2.90;99.90;;;;;;5100700;28;20032;-90
2024/02/29 09:03:13;;;;;;;53.40;24.63;;;2.90;99.90;;;;;;5083376;28;20028;-91
2024/02/29 09:05:39;;;;;;;51.45;22.65;;;2.90;99.90;;;;;;5086268;28;20027;-91
2024/02/29 09:08:05;;;;;;;55.67;19.38;;;2.90;99.90;;;;;;5102104;28;20017;-90
2024/02/29 09:10:31;;;;;;;58.67;20.23;;;2.90;99.90;;;;;;5102027;28;20024;-91
2024/02/29 09:12:57;;;;;;;53.50;19.10;;;3.10;99.90;;;;;;5099237;28;20101;-91
2024/02/29 09:15:23;;;;;;;46.47;20.70;;;3.30;99.90;;;;;;5084627;28;20121;-91
2024/02/29 09:17:49;;;;;;;53.13;22.48;;;3.40;99.90;;;;;;5098622;28;20020;-92
2024/02/29 09:20:15;;;;;;;50.00;21.20;;;3.30;99.90;;;;;;5092909;28;20034;-92
2024/02/29 09:22:40;;;;;;;54.00;22.15;;;3.40;99.90;;;;;;5072681;28;20030;-90
2024/02/29 09:25:06;;;;;;;58.95;23.73;;;3.50;99.90;;;;;;5070294;28;20025;-91
2024/02/29 09:27:32;;;;;;;54.55;20.42;;;3.40;99.90;;;;;;5097410;28;20095;-91
2024/02/29 09:29:58;;;;;;;51.97;21.65;;;3.70;99.90;;;;;;5073336;28;20031;-91
2024/02/29 09:32:24;;;;;;;55.60;21.80;;;3.90;99.90;;;;;;5081145;28;20020;-91
2024/02/29 09:34:50;;;;;;;58.67;23.52;;;4.00;99.90;;;;;;5076775;28;20027;-91
2024/02/29 09:37:15;;;;;;;48.58;20.20;;;4.10;99.90;;;;;;5097656;28;20024;-86
2024/02/29 09:39:41;;;;;;;56.80;23.48;;;4.20;99.90;;;;;;5094106;28;20025;-88
2024/02/29 09:42:09;;;;;;;54.97;21.48;;;4.40;99.90;;;;;;5094088;28;20039;-89
2024/02/29 09:44:35;;;;;;;;;;;4.50;99.90;;;;;;5094930;28;20506;-89
2024/02/29 09:47:01;;;;;;;62.38;22.60;;;4.30;99.90;;;;;;5098004;28;19909;-89
2024/02/29 09:49:28;;;;;;;52.22;21.65;;;4.30;99.90;;;;;;5083793;28;20031;-88
2024/02/29 09:51:54;;;;;;;60.60;23.05;;;4.50;99.90;;;;;;5084345;28;20036;-89
2024/02/29 09:54:21;;;;;;;56.85;22.38;;;4.60;99.90;;;;;;5102424;28;20028;-89
2024/02/29 09:56:47;;;;;;;58.80;20.77;;;4.80;99.90;;;;;;5103968;28;20028;-88
2024/02/29 09:59:17;;;;;;;55.65;20.70;;;4.90;99.90;;;;;;5084429;28;20032;-86
2024/02/29 10:01:57;;;;;;;59.05;23.23;;;5.00;99.90;;;;;;5085868;28;20062;-88
2024/02/29 10:04:26;;;;;;;61.03;21.85;;;4.90;99.90;;;;;;5095930;28;20032;-88
2024/02/29 10:06:54;;;;;;;63.22;22.65;;;4.90;99.90;;;;;;5097158;28;20024;-89
2024/02/29 10:09:24;;;;;;;59.75;23.67;;;4.80;99.90;;;;;;5081166;28;20035;-90
2024/02/29 10:11:55;;;;;;;64.82;24.13;;;4.90;99.90;;;;;;5107016;28;20028;-89
2024/02/29 10:14:30;;;;;;;56.05;20.23;;;5.10;99.90;;;;;;5084436;28;20023;-90
2024/02/29 10:16:56;;;;;;;54.92;19.90;;;5.30;99.90;;;;;;5113580;28;20030;-90
2024/02/29 10:19:23;;;;;;;56.50;22.05;;;5.50;99.90;;;;;;5081366;28;20081;-88
2024/02/29 10:21:50;;;;;;;52.63;22.48;;;5.90;99.90;;;;;;5102494;28;20020;-87
2024/02/29 10:24:19;;;;;;;49.83;20.27;;;6.30;95.70;;;;;;5097287;28;20020;-88
2024/02/29 10:26:46;;;;;;;53.15;20.75;;;6.60;92.70;;;;;;5099996;28;20042;-85
2024/02/29 10:29:15;;;;;;;55.60;23.23;;;6.70;93.80;;;;;;5092694;28;20016;-89
2024/02/29 10:31:41;;;;;;;51.97;20.75;;;6.70;93.90;;;;;;5089447;28;20473;-89
2024/02/29 10:34:13;;;;;;;52.80;20.70;;;6.70;93.10;;;;;;5119506;28;20027;-89
2024/02/29 10:36:40;;;;;;;59.28;22.33;;;6.90;93.00;;;;;;5107085;28;20020;-89
2024/02/29 10:39:06;;;;;;;55.15;21.40;;;7.10;93.40;;;;;;5080963;28;20020;-88
2024/02/29 10:41:32;;;;;;;56.58;22.27;;;7.40;91.90;;;;;;5095841;28;20020;-88
2024/02/29 10:44:02;;;;;;;55.22;21.80;;;7.50;90.00;;;;;;5091501;28;20035;-91
2024/02/29 10:46:29;;;;;;;87.65;25.83;;;7.80;87.80;;;;;;5097440;28;20111;-90
2024/02/29 10:49:38;;;;;;;48.25;20.77;;;7.90;88.00;;;;;;5102172;28;20042;-89
2024/02/29 10:52:18;;;;;;;48.95;19.90;;;7.80;90.60;;;;;;4989140;28;20070;-89
2024/02/29 10:54:55;;;;;;;49.90;19.27;;;8.00;90.00;;;;;;4978536;28;20026;-88
2024/02/29 10:57:28;;;;;;;46.08;20.50;;;8.20;88.80;;;;;;5060389;28;20440;-91
2024/02/29 11:00:03;;;;;;;47.78;21.17;;;7.80;89.00;;;;;;5082018;28;20036;-90
2024/02/29 11:02:29;;;;;;;51.42;20.75;;;8.20;86.30;;;;;;5106305;28;20119;-93
2024/02/29 11:04:56;;;;;;;52.70;21.55;;;8.20;85.90;;;;;;5084271;28;20029;-92
2024/02/29 11:07:22;;;;;;;55.45;20.38;;;8.10;86.60;;;;;;5093833;28;20001;-92
2024/02/29 11:09:48;;;;;;;46.53;20.13;;;7.90;90.50;;;;;;5099527;28;20034;-94
2024/02/29 11:12:21;;;;;;;46.28;21.05;;;8.10;91.10;;;;;;5111402;28;20013;-96
2024/02/29 11:14:58;;;;;;;46.42;20.10;;;8.20;88.90;;;;;;5115575;28;20028;-95
2024/02/29 11:17:33;;;;;;;52.50;22.73;;;8.60;88.00;;;;;;5110750;28;20028;-93
2024/02/29 11:20:03;;;;;;;49.20;21.17;;;9.20;87.00;;;;;;5109470;28;20032;-95
2024/02/29 11:22:33;;;;;;;44.38;18.88;;;9.70;83.60;;;;;;5102489;28;20490;-95
2024/02/29 11:25:10;;;;;;;48.78;21.02;;;9.70;83.20;;;;;;5104757;28;20015;-95
2024/02/29 11:27:39;;;;;;;50.17;21.75;;;9.90;82.30;;;;;;5090287;28;20026;-95
2024/02/29 11:30:16;;;;;;;45.15;20.52;;;10.20;80.90;;;;;;5106577;28;20027;-93
2024/02/29 11:32:45;;;;;;;45.33;18.08;;;10.00;80.80;;;;;;5106397;28;20023;-95
2024/02/29 11:35:11;;;;;;;42.10;18.20;;;10.40;78.40;;;;;;5092887;28;20084;-94
2024/02/29 11:37:39;;;;;;;43.83;20.73;;;10.30;79.30;;;;;;5091223;28;20020;-93
2024/02/29 11:40:09;;;;;;;42.50;20.13;;;10.80;77.50;;;;;;5090327;28;20000;-94
2024/02/29 11:42:38;;;;;;;40.00;18.55;;;11.00;75.50;;;;;;5102541;28;20115;-96
2024/02/29 11:45:04;;;;;;;43.08;19.33;;;10.90;74.90;;;;;;5108848;28;20013;-94
2024/02/29 11:47:32;;;;;;;44.72;18.60;;;10.80;73.10;;;;;;5096803;28;20088;-95
2024/02/29 11:50:10;;;;;;;40.88;20.52;;;11.20;73.60;;;;;;5110739;28;20008;-96
2024/02/29 11:52:37;;;;;;;41.55;19.50;;;11.40;73.30;;;;;;5094268;28;20030;-95
2024/02/29 11:55:03;;;;;;;36.95;18.65;;;11.50;73.40;;;;;;5111491;28;20022;-95
2024/02/29 11:57:29;;;;;;;39.67;17.73;;;11.90;70.30;;;;;;5112678;28;20019;-95
2024/02/29 11:59:57;;;;;;;39.10;18.17;;;11.70;71.20;;;;;;5094721;28;20011;-95
2024/02/29 12:02:23;;;;;;;41.25;18.58;;;11.60;69.80;;;;;;5092403;28;20028;-95
2024/02/29 12:04:51;;;;;;;38.78;18.15;;;12.10;68.80;;;;;;5089484;28;20028;-96
2024/02/29 12:07:17;;;;;;;39.92;18.35;;;12.20;68.00;;;;;;5091630;28;20109;-95
2024/02/29 12:09:44;;;;;;;38.47;18.20;;;12.30;67.20;;;;;;5102276;28;20187;-94
2024/02/29 12:12:10;;;;;;;38.40;17.00;;;12.50;65.40;;;;;;5085903;28;20119;-94
2024/02/29 12:14:38;;;;;;;32.80;15.75;;;12.60;65.90;;;;;;5088180;28;20024;-95
2024/02/29 12:17:07;;;;;;;30.63;15.05;;;12.40;65.10;;;;;;5105792;28;20031;-94
2024/02/29 12:19:39;;;;;;;36.85;16.60;;;12.80;64.60;;;;;;5105791;28;20020;-94
2024/02/29 12:22:12;;;;;;;28.77;14.82;;;13.70;59.20;;;;;;5088215;28;20101;-94
2024/02/29 12:24:38;;;;;;;31.13;14.98;;;14.00;56.80;;;;;;5104860;28;20024;-92
2024/02/29 12:27:07;;;;;;;34.45;15.70;;;14.20;54.60;;;;;;5102984;28;20505;-93
2024/02/29 12:29:33;;;;;;;36.25;16.55;;;14.40;53.80;;;;;;5084886;28;20042;-94
2024/02/29 12:31:59;;;;;;;31.38;16.90;;;14.20;54.00;;;;;;5083954;28;20232;-93